Time;durP1;ratioP1;P1;durP2;ratioP2;P2;SDS_P1;SDS_P2;PMS_P1;PMS_P2;Temp;Humidity;BMP_temperature;BMP_pressure;BME280_temperature;BME280_humidity;BME280_pressure;Samples;Min_cycle;Max_cycle;Signal;HPM_P1;HPM_P2
2022/03/28 00:00:38;;;;;;;61.20;47.13;;;;;;;;;;10267913;28;20418;-91
2022/03/28 00:05:40;;;;;;;57.43;45.93;;;;;;;;;;10309519;28;20410;-89
2022/03/28 00:10:44;;;;;;;62.27;47.30;;;;;;;;;;10260645;28;20497;-91
2022/03/28 00:15:46;;;;;;;60.05;46.80;;;;;;;;;;10288314;28;20462;-91
2022/03/28 00:20:49;;;;;;;60.80;47.00;;;;;;;;;;10295233;28;20544;-91
2022/03/28 00:25:53;;;;;;;58.78;45.20;;;;;;;;;;10280450;28;20472;-91
2022/03/28 00:30:54;;;;;;;59.23;44.87;;;;;;;;;;10277706;28;20494;-91
2022/03/28 00:35:57;;;;;;;58.17;43.78;;;;;;;;;;10255138;28;20503;-90
2022/03/28 00:41:00;;;;;;;52.92;41.58;;;;;;;;;;10284408;28;20426;-90
2022/03/28 00:46:03;;;;;;;55.25;42.05;;;;;;;;;;10300218;28;20910;-91
2022/03/28 00:51:04;;;;;;;52.65;41.70;;;;;;;;;;10259807;28;20499;-92
2022/03/28 00:56:08;;;;;;;53.65;42.08;;;;;;;;;;10259343;28;20398;-90
2022/03/28 01:01:10;;;;;;;55.63;42.53;;;;;;;;;;10268584;28;20454;-92
2022/03/28 01:06:12;;;;;;;57.97;43.00;;;;;;;;;;10278033;28;20427;-91
2022/03/28 01:11:17;;;;;;;57.77;43.13;;;;;;;;;;10277073;28;20410;-91
2022/03/28 01:16:20;;;;;;;55.83;43.40;;;;;;;;;;10303636;28;20431;-92
2022/03/28 01:21:23;;;;;;;54.38;42.50;;;;;;;;;;10276101;28;20444;-92
2022/03/28 01:26:25;;;;;;;56.63;41.53;;;;;;;;;;10286910;28;20444;-91
2022/03/28 01:31:27;;;;;;;59.27;42.87;;;;;;;;;;10282921;28;20489;-89
2022/03/28 01:36:32;;;;;;;55.20;43.15;;;;;;;;;;10303581;28;21312;-90
2022/03/28 01:41:33;;;;;;;56.58;43.00;;;;;;;;;;10287476;28;20529;-91
2022/03/28 01:46:40;;;;;;;58.20;42.60;;;;;;;;;;10274190;28;20408;-90
2022/03/28 01:51:45;;;;;;;60.95;44.83;;;;;;;;;;10299732;28;20444;-91
2022/03/28 01:56:47;;;;;;;57.42;43.85;;;;;;;;;;10295743;28;20423;-91
2022/03/28 02:01:48;;;;;;;59.13;44.30;;;;;;;;;;10303600;28;20470;-91
2022/03/28 02:06:52;;;;;;;59.88;43.55;;;;;;;;;;10284708;28;21109;-91
2022/03/28 02:11:54;;;;;;;58.53;43.73;;;;;;;;;;10296489;28;20510;-92
2022/03/28 02:16:56;;;;;;;60.17;44.97;;;;;;;;;;10291333;28;20407;-91
2022/03/28 02:22:00;;;;;;;58.00;44.35;;;;;;;;;;10263731;28;20471;-91
2022/03/28 02:27:02;;;;;;;56.40;44.75;;;;;;;;;;10270699;28;20490;-91
2022/03/28 02:32:05;;;;;;;62.50;46.00;;;;;;;;;;10289035;28;20818;-91
2022/03/28 02:37:08;;;;;;;59.45;45.00;;;;;;;;;;10323832;28;20412;-89
2022/03/28 02:42:10;;;;;;;60.27;45.37;;;;;;;;;;10273843;28;21294;-91
2022/03/28 02:47:12;;;;;;;58.67;45.33;;;;;;;;;;10306935;28;20556;-91
2022/03/28 02:52:15;;;;;;;56.75;43.83;;;;;;;;;;10321475;28;20407;-91
2022/03/28 02:57:17;;;;;;;56.33;43.93;;;;;;;;;;10329068;28;20417;-90
2022/03/28 03:02:19;;;;;;;60.23;44.77;;;;;;;;;;10317207;28;20462;-90
2022/03/28 03:07:22;;;;;;;56.92;44.42;;;;;;;;;;10288729;28;20414;-91
2022/03/28 03:12:24;;;;;;;61.97;47.30;;;;;;;;;;10274593;28;20840;-92
2022/03/28 03:17:26;;;;;;;61.50;45.63;;;;;;;;;;10297204;28;20467;-89
2022/03/28 03:22:30;;;;;;;59.30;45.73;;;;;;;;;;10316206;28;20424;-91
2022/03/28 03:27:32;;;;;;;62.15;46.28;;;;;;;;;;10317829;28;20405;-90
2022/03/28 03:32:35;;;;;;;61.20;45.58;;;;;;;;;;10341555;28;20394;-92
2022/03/28 03:37:39;;;;;;;57.67;43.58;;;;;;;;;;10302228;28;20499;-91
2022/03/28 03:42:41;;;;;;;59.55;44.50;;;;;;;;;;10285445;28;20496;-91
2022/03/28 03:47:43;;;;;;;58.47;44.28;;;;;;;;;;10297865;28;20952;-91
2022/03/28 03:52:47;;;;;;;57.95;44.05;;;;;;;;;;10303444;28;20501;-91
2022/03/28 03:57:49;;;;;;;60.95;44.50;;;;;;;;;;10299895;28;20493;-91
2022/03/28 04:02:51;;;;;;;58.53;42.83;;;;;;;;;;10295323;28;20516;-92
2022/03/28 04:07:55;;;;;;;57.93;43.23;;;;;;;;;;10286653;28;20434;-91
2022/03/28 04:12:57;;;;;;;56.33;42.88;;;;;;;;;;10297824;28;20935;-92
2022/03/28 04:17:59;;;;;;;60.45;43.20;;;;;;;;;;10294246;28;20424;-89
2022/03/28 04:23:03;;;;;;;57.63;43.20;;;;;;;;;;10314935;28;20441;-89
2022/03/28 04:28:07;;;;;;;59.22;43.63;;;;;;;;;;10251640;28;20404;-88
2022/03/28 04:33:09;;;;;;;61.03;44.73;;;;;;;;;;10319657;28;20504;-93
2022/03/28 04:38:12;;;;;;;57.83;44.00;;;;;;;;;;10289622;28;20422;-91
2022/03/28 04:43:15;;;;;;;57.35;41.78;;;;;;;;;;10281806;28;20984;-91
2022/03/28 04:48:17;;;;;;;56.83;40.90;;;;;;;;;;10267880;28;20443;-91
2022/03/28 04:53:21;;;;;;;59.97;42.95;;;;;;;;;;10290246;28;20441;-90
2022/03/28 04:58:23;;;;;;;56.13;39.40;;;;;;;;;;10293135;28;20404;-90
2022/03/28 05:03:25;;;;;;;53.08;38.40;;;;;;;;;;10280189;28;20525;-90
2022/03/28 05:08:28;;;;;;;52.95;36.22;;;;;;;;;;10307700;28;20444;-91
2022/03/28 05:13:30;;;;;;;58.33;39.75;;;;;;;;;;10283367;28;20414;-91
2022/03/28 05:18:32;;;;;;;59.88;42.70;;;;;;;;;;10265265;28;20420;-91
2022/03/28 05:23:36;;;;;;;63.80;42.40;;;;;;;;;;10267505;28;20523;-90
2022/03/28 05:28:38;;;;;;;61.90;41.43;;;;;;;;;;10256429;28;20438;-91
2022/03/28 05:33:39;;;;;;;60.53;41.30;;;;;;;;;;10247099;28;20508;-90
2022/03/28 05:38:44;;;;;;;62.63;42.60;;;;;;;;;;10263965;28;20502;-89
2022/03/28 05:43:45;;;;;;;62.07;42.57;;;;;;;;;;10264019;28;20912;-91
2022/03/28 05:48:47;;;;;;;63.13;43.90;;;;;;;;;;10268992;28;20888;-86
2022/03/28 05:53:51;;;;;;;64.00;44.27;;;;;;;;;;10272998;28;20418;-93
2022/03/28 05:58:55;;;;;;;63.22;44.67;;;;;;;;;;10281293;28;20523;-87
2022/03/28 06:03:57;;;;;;;64.18;44.40;;;;;;;;;;10299247;28;20484;-88
2022/03/28 06:09:01;;;;;;;66.05;44.60;;;;;;;;;;10270165;28;20398;-89
2022/03/28 06:14:04;;;;;;;65.72;43.55;;;;;;;;;;10282557;28;20437;-88
2022/03/28 06:19:05;;;;;;;74.53;46.83;;;;;;;;;;10320239;28;20454;-89
2022/03/28 06:24:09;;;;;;;67.15;45.90;;;;;;;;;;10329386;28;20464;-89
2022/03/28 06:29:11;;;;;;;69.82;47.97;;;;;;;;;;10309155;28;20413;-89
2022/03/28 06:34:13;;;;;;;69.75;47.63;;;;;;;;;;10297398;28;20496;-89
2022/03/28 06:39:16;;;;;;;71.28;48.03;;;;;;;;;;10315989;28;20513;-89
2022/03/28 06:44:18;;;;;;;77.83;50.27;;;;;;;;;;10294423;28;20593;-89
2022/03/28 06:49:20;;;;;;;66.40;49.10;;;;;;;;;;10284012;28;20848;-89
2022/03/28 06:54:23;;;;;;;68.07;49.88;;;;;;;;;;10308611;28;20487;-89
2022/03/28 06:59:25;;;;;;;74.75;51.47;;;;;;;;;;10299772;28;20456;-87
2022/03/28 07:04:27;;;;;;;75.30;51.65;;;;;;;;;;10289949;28;20424;-88
2022/03/28 07:09:30;;;;;;;72.38;52.22;;;;;;;;;;10303959;28;20887;-90
2022/03/28 07:14:33;;;;;;;72.32;53.38;;;;;;;;;;10274116;28;20405;-88
2022/03/28 07:19:35;;;;;;;74.20;53.30;;;;;;;;;;10277852;28;20442;-87
2022/03/28 07:24:38;;;;;;;71.60;53.05;;;;;;;;;;10298007;28;20520;-89
2022/03/28 07:29:43;;;;;;;77.30;53.40;;;;;;;;;;10286692;28;20936;-88
2022/03/28 07:34:45;;;;;;;73.47;53.00;;;;;;;;;;10285687;28;20418;-91
2022/03/28 07:39:48;;;;;;;67.47;52.33;;;;;;;;;;10287049;28;20481;-88
2022/03/28 07:44:55;;;;;;;73.53;54.38;;;;;;;;;;10285563;28;20459;-90
2022/03/28 07:49:59;;;;;;;69.75;51.72;;;;;;;;;;10292843;28;20479;-87
2022/03/28 07:55:04;;;;;;;69.93;51.75;;;;;;;;;;10261828;28;20480;-89
2022/03/28 08:00:10;;;;;;;68.00;50.03;;;;;;;;;;10296085;28;20423;-89
2022/03/28 08:05:12;;;;;;;64.60;48.97;;;;;;;;;;10297865;28;20445;-90
2022/03/28 08:10:16;;;;;;;60.17;44.55;;;;;;;;;;10302435;28;20409;-90
2022/03/28 08:15:19;;;;;;;54.45;41.45;;;;;;;;;;10282166;28;20897;-89
2022/03/28 08:20:21;;;;;;;57.03;42.57;;;;;;;;;;10268562;28;20495;-94
2022/03/28 08:25:26;;;;;;;59.00;44.80;;;;;;;;;;10276975;28;20418;-94
2022/03/28 08:30:28;;;;;;;55.80;42.80;;;;;;;;;;10314893;28;20508;-93
2022/03/28 08:35:30;;;;;;;54.60;41.60;;;;;;;;;;10305330;28;20414;-92
2022/03/28 08:40:34;;;;;;;56.33;42.57;;;;;;;;;;10310330;28;20445;-93
2022/03/28 08:45:37;;;;;;;60.40;44.13;;;;;;;;;;10284443;28;20509;-91
2022/03/28 08:50:42;;;;;;;56.72;42.42;;;;;;;;;;10272274;28;20451;-93
2022/03/28 08:55:47;;;;;;;53.88;40.28;;;;;;;;;;10258213;28;20437;-94
2022/03/28 09:00:49;;;;;;;52.50;40.33;;;;;;;;;;10259842;28;20530;-91
2022/03/28 09:05:51;;;;;;;50.83;38.35;;;;;;;;;;10307142;28;20416;-92
2022/03/28 09:10:57;;;;;;;47.97;37.17;;;;;;;;;;10316415;28;20447;-92
2022/03/28 09:16:05;;;;;;;49.20;36.60;;;;;;;;;;10317409;28;20445;-92
2022/03/28 09:21:14;;;;;;;48.67;36.90;;;;;;;;;;10316074;28;20415;-92
2022/03/28 09:26:20;;;;;;;45.38;35.67;;;;;;;;;;10287055;28;20509;-93
2022/03/28 09:31:26;;;;;;;45.17;34.35;;;;;;;;;;10281115;28;20420;-93
2022/03/28 09:36:49;;;;;;;43.43;32.90;;;;;;;;;;10318011;28;21065;-93
2022/03/28 09:42:06;;;;;;;41.45;31.20;;;;;;;;;;10335764;28;20479;-93
2022/03/28 09:47:10;;;;;;;44.30;32.88;;;;;;;;;;10327574;28;20382;-91
2022/03/28 09:52:14;;;;;;;43.33;33.40;;;;;;;;;;10317305;28;20481;-92
2022/03/28 09:57:21;;;;;;;41.33;31.80;;;;;;;;;;10269451;28;20472;-92
2022/03/28 10:02:25;;;;;;;43.90;32.35;;;;;;;;;;10253379;29;20427;-93
2022/03/28 10:07:27;;;;;;;42.83;31.07;;;;;;;;;;10280542;28;20507;-93
2022/03/28 10:12:30;;;;;;;41.45;30.52;;;;;;;;;;10298739;28;20982;-92
2022/03/28 10:17:34;;;;;;;41.22;30.13;;;;;;;;;;10350004;28;20432;-93
2022/03/28 10:22:41;;;;;;;40.78;30.35;;;;;;;;;;10276817;28;20507;-92
2022/03/28 10:27:45;;;;;;;42.50;30.37;;;;;;;;;;10282678;28;20492;-92
2022/03/28 10:32:47;;;;;;;40.08;30.92;;;;;;;;;;10306697;28;20485;-92
2022/03/28 10:37:51;;;;;;;41.22;30.58;;;;;;;;;;10297024;28;20506;-92
2022/03/28 10:43:02;;;;;;;43.85;30.08;;;;;;;;;;10256152;28;20445;-91
2022/03/28 10:48:05;;;;;;;40.58;30.48;;;;;;;;;;10305683;28;20409;-92
2022/03/28 10:53:15;;;;;;;40.47;31.33;;;;;;;;;;10289435;28;20501;-92
2022/03/28 10:58:26;;;;;;;41.20;31.55;;;;;;;;;;10252024;28;20408;-91
2022/03/28 11:03:35;;;;;;;38.75;30.92;;;;;;;;;;10289510;28;20927;-93
2022/03/28 11:08:38;;;;;;;41.72;31.45;;;;;;;;;;10290257;28;20405;-90
2022/03/28 11:13:42;;;;;;;47.22;32.72;;;;;;;;;;10290127;28;20409;-92
2022/03/28 11:18:43;;;;;;;42.92;33.45;;;;;;;;;;10282116;28;20900;-80
2022/03/28 11:23:48;;;;;;;42.15;32.55;;;;;;;;;;10288658;28;20480;-91
2022/03/28 11:28:52;;;;;;;40.87;32.47;;;;;;;;;;10295742;28;20542;-92
2022/03/28 11:33:55;;;;;;;41.63;32.38;;;;;;;;;;10298237;28;20543;-90
2022/03/28 11:38:59;;;;;;;41.80;32.53;;;;;;;;;;10308598;28;20410;-91
2022/03/28 11:44:04;;;;;;;40.97;31.63;;;;;;;;;;10292326;28;20511;-91
2022/03/28 11:49:08;;;;;;;39.70;31.70;;;;;;;;;;10267354;28;20824;-91
2022/03/28 11:54:12;;;;;;;40.97;31.08;;;;;;;;;;10265210;28;20408;-91
2022/03/28 11:59:16;;;;;;;40.92;32.78;;;;;;;;;;10264838;28;20427;-91
2022/03/28 12:04:21;;;;;;;42.42;32.45;;;;;;;;;;10265570;28;20424;-91
2022/03/28 12:09:23;;;;;;;42.67;32.77;;;;;;;;;;10279815;28;20475;-92
2022/03/28 12:14:30;;;;;;;44.20;32.10;;;;;;;;;;10281756;28;20779;-88
2022/03/28 12:19:32;;;;;;;42.97;33.03;;;;;;;;;;10294152;28;20911;-93
2022/03/28 12:24:36;;;;;;;44.42;31.75;;;;;;;;;;10267949;28;20503;-91
2022/03/28 12:29:41;;;;;;;42.08;32.10;;;;;;;;;;10307613;28;20407;-91
2022/03/28 12:34:43;;;;;;;44.83;31.92;;;;;;;;;;10302383;28;20836;-91
2022/03/28 12:39:45;;;;;;;45.58;33.22;;;;;;;;;;10279132;28;21016;-90
2022/03/28 12:44:49;;;;;;;46.33;32.60;;;;;;;;;;10271129;28;20434;-91
2022/03/28 12:49:57;;;;;;;42.30;32.13;;;;;;;;;;10269945;28;20455;-92
2022/03/28 12:54:59;;;;;;;41.80;31.50;;;;;;;;;;10257037;28;20409;-93
2022/03/28 13:00:03;;;;;;;44.22;33.72;;;;;;;;;;10278111;28;20940;-92
2022/03/28 13:05:16;;;;;;;46.28;33.50;;;;;;;;;;10267030;28;20483;-92
2022/03/28 13:10:24;;;;;;;43.03;33.08;;;;;;;;;;10276683;28;20424;-91
2022/03/28 13:15:32;;;;;;;43.53;31.73;;;;;;;;;;10285787;28;20419;-91
2022/03/28 13:20:35;;;;;;;42.38;32.60;;;;;;;;;;10269108;28;20414;-91
2022/03/28 13:25:44;;;;;;;42.37;32.47;;;;;;;;;;10264278;28;20434;-91
2022/03/28 13:30:53;;;;;;;40.75;32.30;;;;;;;;;;10281942;28;20911;-93
2022/03/28 13:35:56;;;;;;;39.50;32.37;;;;;;;;;;10259164;28;20539;-91
2022/03/28 13:41:00;;;;;;;43.17;33.93;;;;;;;;;;10272748;28;20417;-90
2022/03/28 13:46:08;;;;;;;41.28;32.28;;;;;;;;;;10272633;28;20845;-91
2022/03/28 13:51:10;;;;;;;44.57;34.50;;;;;;;;;;10279357;28;20479;-90
2022/03/28 13:56:12;;;;;;;41.83;33.20;;;;;;;;;;10268933;28;20470;-91
2022/03/28 14:01:16;;;;;;;41.93;33.53;;;;;;;;;;10271459;28;20497;-91
2022/03/28 14:06:19;;;;;;;43.00;33.22;;;;;;;;;;10253373;28;20427;-92
2022/03/28 14:11:21;;;;;;;42.50;32.80;;;;;;;;;;10258937;28;20662;-92
2022/03/28 14:16:26;;;;;;;38.87;31.00;;;;;;;;;;10264780;28;20434;-91
2022/03/28 14:21:27;;;;;;;42.73;31.73;;;;;;;;;;10270302;28;20426;-93
2022/03/28 14:26:29;;;;;;;45.33;32.27;;;;;;;;;;10281791;28;20436;-79
2022/03/28 14:31:35;;;;;;;41.83;32.80;;;;;;;;;;10262447;28;20448;-91
2022/03/28 14:36:37;;;;;;;43.90;33.13;;;;;;;;;;10269533;28;20505;-92
2022/03/28 14:41:40;;;;;;;42.90;32.60;;;;;;;;;;10275513;28;20434;-92
2022/03/28 14:47:02;;;;;;;41.00;32.70;;;;;;;;;;10277336;28;20424;-90
2022/03/28 14:52:06;;;;;;;43.38;32.58;;;;;;;;;;10275188;28;20425;-81
2022/03/28 14:57:08;;;;;;;41.58;30.75;;;;;;;;;;10279879;28;20428;-90
2022/03/28 15:02:13;;;;;;;38.80;31.65;;;;;;;;;;10285643;28;20798;-88
2022/03/28 15:07:19;;;;;;;41.00;31.48;;;;;;;;;;10278825;28;20420;-88
2022/03/28 15:12:21;;;;;;;42.10;31.83;;;;;;;;;;10285846;28;20416;-87
2022/03/28 15:17:24;;;;;;;44.72;32.70;;;;;;;;;;10302694;28;20435;-88
2022/03/28 15:22:26;;;;;;;42.47;32.72;;;;;;;;;;10292943;28;20431;-88
2022/03/28 15:27:29;;;;;;;44.25;34.63;;;;;;;;;;10306093;28;20411;-87
2022/03/28 15:32:32;;;;;;;44.38;34.17;;;;;;;;;;10296163;28;20979;-87
2022/03/28 15:37:35;;;;;;;44.50;33.27;;;;;;;;;;10309344;28;20499;-87
2022/03/28 15:42:37;;;;;;;45.17;34.83;;;;;;;;;;10305368;28;20424;-87
2022/03/28 15:47:41;;;;;;;46.40;33.60;;;;;;;;;;10307697;28;20417;-88
2022/03/28 15:52:43;;;;;;;44.85;33.10;;;;;;;;;;10294984;28;20427;-87
2022/03/28 15:57:45;;;;;;;43.42;31.27;;;;;;;;;;10295763;28;20756;-88
2022/03/28 16:02:48;;;;;;;43.65;30.40;;;;;;;;;;10300194;28;20736;-88
2022/03/28 16:07:50;;;;;;;45.28;31.10;;;;;;;;;;10283321;28;20910;-89
2022/03/28 16:12:52;;;;;;;42.13;30.27;;;;;;;;;;10309055;28;20516;-87
2022/03/28 16:17:55;;;;;;;41.20;29.50;;;;;;;;;;10308401;28;20451;-89
2022/03/28 16:22:57;;;;;;;41.10;30.48;;;;;;;;;;10299406;28;20520;-88
2022/03/28 16:28:02;;;;;;;41.13;29.53;;;;;;;;;;10294769;28;20519;-90
2022/03/28 16:33:10;;;;;;;44.05;28.35;;;;;;;;;;10307519;28;20417;-91
2022/03/28 16:38:12;;;;;;;39.93;28.20;;;;;;;;;;10301616;28;20425;-91
2022/03/28 16:43:14;;;;;;;37.20;25.85;;;;;;;;;;10303405;28;20439;-92
2022/03/28 16:48:17;;;;;;;34.43;24.73;;;;;;;;;;10304959;28;20502;-92
2022/03/28 16:53:19;;;;;;;33.83;21.92;;;;;;;;;;10307078;28;20749;-90
2022/03/28 16:58:21;;;;;;;32.33;22.30;;;;;;;;;;10284908;28;20461;-91
2022/03/28 17:03:25;;;;;;;29.23;21.17;;;;;;;;;;10291367;28;20901;-91
2022/03/28 17:08:28;;;;;;;30.80;20.58;;;;;;;;;;10290505;28;20498;-92
2022/03/28 17:13:31;;;;;;;28.52;19.48;;;;;;;;;;10276422;28;20415;-91
2022/03/28 17:18:35;;;;;;;30.13;19.73;;;;;;;;;;10275276;28;20800;-93
2022/03/28 17:23:37;;;;;;;29.47;20.00;;;;;;;;;;10275887;28;20468;-93
2022/03/28 17:28:39;;;;;;;27.50;20.48;;;;;;;;;;10268043;28;20420;-93
2022/03/28 17:33:42;;;;;;;33.72;21.15;;;;;;;;;;10268286;28;20969;-94
2022/03/28 17:38:44;;;;;;;29.30;20.00;;;;;;;;;;10262591;28;20434;-92
2022/03/28 17:43:47;;;;;;;27.50;20.05;;;;;;;;;;10268764;28;20432;-91
2022/03/28 17:48:55;;;;;;;28.63;20.65;;;;;;;;;;10267125;28;20420;-93
2022/03/28 17:53:57;;;;;;;27.15;20.95;;;;;;;;;;10268103;28;20536;-92
2022/03/28 17:58:59;;;;;;;33.40;22.15;;;;;;;;;;10283957;28;20448;-91
2022/03/28 18:04:07;;;;;;;30.23;21.33;;;;;;;;;;10271766;28;20419;-92
2022/03/28 18:09:12;;;;;;;29.38;20.73;;;;;;;;;;10290182;28;20417;-92
2022/03/28 18:14:17;;;;;;;31.20;21.98;;;;;;;;;;10263651;28;20481;-92
2022/03/28 18:19:25;;;;;;;29.90;21.97;;;;;;;;;;10276331;28;20508;-92
2022/03/28 18:24:33;;;;;;;31.50;22.40;;;;;;;;;;10269600;28;21294;-91
2022/03/28 18:29:37;;;;;;;35.60;23.40;;;;;;;;;;10282443;28;20412;-92
2022/03/28 18:34:43;;;;;;;31.90;22.70;;;;;;;;;;10275742;28;20434;-90
2022/03/28 18:39:48;;;;;;;34.45;24.23;;;;;;;;;;10277710;28;20426;-91
2022/03/28 18:44:51;;;;;;;31.90;23.70;;;;;;;;;;10348055;28;20501;-92
2022/03/28 18:50:01;;;;;;;31.75;24.63;;;;;;;;;;10289625;28;20431;-92
2022/03/28 18:55:07;;;;;;;30.80;24.00;;;;;;;;;;10341716;28;20408;-91
2022/03/28 19:00:14;;;;;;;32.75;24.85;;;;;;;;;;10299060;28;20412;-91
2022/03/28 19:05:20;;;;;;;34.10;24.70;;;;;;;;;;10273137;28;20430;-92
2022/03/28 19:10:25;;;;;;;31.67;24.63;;;;;;;;;;10263172;28;20423;-91
2022/03/28 19:15:29;;;;;;;34.10;25.55;;;;;;;;;;10260003;28;21224;-92
2022/03/28 19:20:36;;;;;;;35.03;25.70;;;;;;;;;;10278493;28;20465;-93
2022/03/28 19:25:40;;;;;;;32.03;24.65;;;;;;;;;;10286270;28;20439;-92
2022/03/28 19:30:51;;;;;;;35.60;26.40;;;;;;;;;;10277362;28;20408;-91
2022/03/28 19:36:05;;;;;;;36.58;26.63;;;;;;;;;;10271076;28;20432;-90
2022/03/28 19:41:10;;;;;;;36.03;26.17;;;;;;;;;;10261614;28;20935;-91
2022/03/28 19:46:13;;;;;;;35.42;26.48;;;;;;;;;;10268549;28;20427;-92
2022/03/28 19:51:23;;;;;;;37.00;26.60;;;;;;;;;;10275354;28;20477;-91
2022/03/28 19:56:25;;;;;;;34.47;25.67;;;;;;;;;;10267198;28;21722;-93
2022/03/28 20:01:28;;;;;;;35.83;27.95;;;;;;;;;;10308606;28;20422;-91
2022/03/28 20:06:32;;;;;;;38.83;27.80;;;;;;;;;;10282196;28;20551;-91
2022/03/28 20:11:36;;;;;;;39.07;28.47;;;;;;;;;;10271140;28;21069;-92
2022/03/28 20:16:38;;;;;;;38.25;27.77;;;;;;;;;;10256250;28;20479;-94
2022/03/28 20:21:41;;;;;;;37.67;28.02;;;;;;;;;;10276922;28;20885;-91
2022/03/28 20:26:44;;;;;;;38.97;28.50;;;;;;;;;;10244247;28;20426;-93
2022/03/28 20:31:46;;;;;;;37.47;27.73;;;;;;;;;;10253858;28;20435;-92
2022/03/28 20:36:49;;;;;;;37.22;28.42;;;;;;;;;;10282081;28;20441;-94
2022/03/28 20:41:54;;;;;;;40.67;29.23;;;;;;;;;;10258173;28;20474;-93
2022/03/28 20:46:58;;;;;;;39.97;29.67;;;;;;;;;;10267158;28;20491;-93
2022/03/28 20:52:05;;;;;;;42.77;31.13;;;;;;;;;;10281628;28;20416;-93
2022/03/28 20:57:09;;;;;;;42.50;31.10;;;;;;;;;;10275983;28;20516;-93
2022/03/28 21:02:17;;;;;;;43.67;31.40;;;;;;;;;;10281519;28;20423;-92
2022/03/28 21:07:24;;;;;;;42.37;32.30;;;;;;;;;;10272378;28;20490;-92
2022/03/28 21:12:29;;;;;;;44.50;32.35;;;;;;;;;;10261747;28;20909;-93
2022/03/28 21:17:32;;;;;;;45.13;32.43;;;;;;;;;;10283385;28;20436;-94
2022/03/28 21:22:41;;;;;;;46.50;32.37;;;;;;;;;;10273075;28;20414;-93
2022/03/28 21:27:43;;;;;;;44.22;32.83;;;;;;;;;;10269886;28;20423;-93
2022/03/28 21:32:45;;;;;;;44.92;32.60;;;;;;;;;;10268867;28;20889;-92
2022/03/28 21:37:49;;;;;;;45.38;32.90;;;;;;;;;;10278337;28;20945;-92
2022/03/28 21:42:53;;;;;;;48.20;33.47;;;;;;;;;;10290276;28;20458;-93
2022/03/28 21:47:55;;;;;;;45.33;32.42;;;;;;;;;;10275276;28;20432;-93
2022/03/28 21:52:59;;;;;;;46.80;31.95;;;;;;;;;;10269516;28;20458;-95
2022/03/28 21:58:01;;;;;;;49.03;34.47;;;;;;;;;;10267565;28;20575;-93
2022/03/28 22:03:03;;;;;;;46.37;32.53;;;;;;;;;;10276081;28;20644;-92
2022/03/28 22:08:07;;;;;;;47.47;33.83;;;;;;;;;;10282538;28;20888;-91
2022/03/28 22:13:09;;;;;;;47.63;33.40;;;;;;;;;;10283747;28;20427;-90
2022/03/28 22:18:13;;;;;;;50.30;34.30;;;;;;;;;;10277193;28;20445;-91
2022/03/28 22:23:16;;;;;;;49.47;35.15;;;;;;;;;;10289547;28;20806;-93
2022/03/28 22:28:18;;;;;;;48.08;34.97;;;;;;;;;;10310603;28;20439;-92
2022/03/28 22:33:21;;;;;;;52.17;35.17;;;;;;;;;;10308455;28;20770;-92
2022/03/28 22:38:26;;;;;;;48.42;35.08;;;;;;;;;;10277956;28;20475;-93
2022/03/28 22:43:28;;;;;;;52.35;36.10;;;;;;;;;;10306027;28;20446;-92
2022/03/28 22:48:30;;;;;;;51.33;35.90;;;;;;;;;;10308420;28;20494;-94
2022/03/28 22:53:34;;;;;;;51.88;37.15;;;;;;;;;;10303877;28;20495;-93
2022/03/28 22:58:36;;;;;;;57.45;37.33;;;;;;;;;;10264490;28;20494;-93
2022/03/28 23:03:38;;;;;;;52.15;36.20;;;;;;;;;;10289207;28;20409;-94
2022/03/28 23:08:41;;;;;;;58.42;36.97;;;;;;;;;;10295871;28;20876;-93
2022/03/28 23:13:43;;;;;;;48.92;35.15;;;;;;;;;;10296013;28;20461;-94
2022/03/28 23:18:45;;;;;;;53.38;35.67;;;;;;;;;;10334549;28;20421;-93
2022/03/28 23:23:49;;;;;;;56.83;36.85;;;;;;;;;;10308043;28;20523;-93
2022/03/28 23:28:51;;;;;;;62.90;36.88;;;;;;;;;;10312996;28;20452;-93
2022/03/28 23:33:54;;;;;;;63.63;38.75;;;;;;;;;;10295226;28;20416;-94
2022/03/28 23:38:58;;;;;;;66.03;39.03;;;;;;;;;;10251361;28;20512;-94
2022/03/28 23:44:00;;;;;;;65.20;37.70;;;;;;;;;;10291968;28;20554;-93
2022/03/28 23:49:03;;;;;;;64.97;38.35;;;;;;;;;;10301993;23;20413;-79
2022/03/28 23:54:06;;;;;;;67.72;39.10;;;;;;;;;;10273939;28;20515;-79
2022/03/28 23:59:08;;;;;;;69.93;38.42;;;;;;;;;;10274249;28;20505;-80
